Time;durP1;ratioP1;P1;durP2;ratioP2;P2;SDS_P1;SDS_P2;PMS_P1;PMS_P2;Temp;Humidity;BMP_temperature;BMP_pressure;BME280_temperature;BME280_humidity;BME280_pressure;Samples;Min_cycle;Max_cycle;Signal;HPM_P1;HPM_P2
2022/10/24 00:02:25;;;;;;;3.28;1.90;;;15.80;99.90;;;;;;5071517;28;20044;-71
2022/10/24 00:04:51;;;;;;;;;;;15.80;99.90;;;;;;5068095;28;20037;-72
2022/10/24 00:07:16;;;;;;;4.63;1.92;;;15.80;99.90;;;;;;5071943;28;20010;-71
2022/10/24 00:09:42;;;;;;;;;;;15.70;99.90;;;;;;5071394;28;20539;-69
2022/10/24 00:12:08;;;;;;;3.70;1.60;;;15.70;99.90;;;;;;5072201;28;20548;-69
2022/10/24 00:14:35;;;;;;;3.25;1.30;;;15.70;99.90;;;;;;5072750;28;20040;-70
2022/10/24 00:17:01;;;;;;;3.38;1.50;;;15.70;99.90;;;;;;5069060;28;20091;-69
2022/10/24 00:19:26;;;;;;;5.60;1.48;;;15.60;99.90;;;;;;5072096;28;20087;-69
2022/10/24 00:21:52;;;;;;;;;;;15.60;99.90;;;;;;5066104;28;20045;-70
2022/10/24 00:24:18;;;;;;;3.00;1.27;;;15.60;99.90;;;;;;5070192;28;20448;-69
2022/10/24 00:26:43;;;;;;;3.05;1.40;;;15.50;99.90;;;;;;5072373;28;20040;-69
2022/10/24 00:29:10;;;;;;;3.72;1.40;;;15.50;99.90;;;;;;5071796;28;20045;-69
2022/10/24 00:31:36;;;;;;;2.58;1.38;;;15.50;99.90;;;;;;5072510;28;20043;-69
2022/10/24 00:34:02;;;;;;;5.85;1.42;;;15.50;99.90;;;;;;5055304;28;20615;-69
2022/10/24 00:36:28;;;;;;;6.40;1.40;;;15.40;99.90;;;;;;5063519;28;20053;-69
2022/10/24 00:38:54;;;;;;;4.85;1.67;;;15.40;99.90;;;;;;5050827;28;20051;-70
2022/10/24 00:41:27;;;;;;;1.90;1.00;;;15.40;99.90;;;;;;5051587;28;20048;-70
2022/10/24 00:44:20;;;;;;;9.40;1.40;;;15.30;99.90;;;;;;5055027;28;20053;-69
2022/10/24 00:46:53;;;;;;;3.13;1.50;;;15.30;99.90;;;;;;5057314;28;20044;-69
2022/10/24 00:49:22;;;;;;;2.53;1.25;;;15.20;99.90;;;;;;5050321;28;20057;-70
2022/10/24 00:51:52;;;;;;;3.75;1.55;;;15.20;99.90;;;;;;5051752;28;20131;-69
2022/10/24 00:54:19;;;;;;;8.52;1.27;;;15.20;99.90;;;;;;5100256;28;20243;-69
2022/10/24 00:57:13;;;;;;;3.42;1.35;;;15.10;99.90;;;;;;5071527;28;20040;-69
2022/10/24 00:59:42;;;;;;;2.90;1.55;;;15.10;99.90;;;;;;5045788;28;20096;-69
2022/10/24 01:02:08;;;;;;;5.40;1.45;;;15.00;99.90;;;;;;5051129;28;20061;-69
2022/10/24 01:04:34;;;;;;;3.13;1.42;;;15.00;99.90;;;;;;5050971;28;20040;-70
2022/10/24 01:07:26;;;;;;;6.55;2.08;;;15.00;99.90;;;;;;5050408;28;20136;-70
2022/10/24 01:10:16;;;;;;;2.83;1.40;;;15.00;99.90;;;;;;5058292;28;20080;-69
2022/10/24 01:13:05;;;;;;;4.68;1.23;;;15.10;99.90;;;;;;5051475;28;20041;-70
2022/10/24 01:15:47;;;;;;;5.13;1.75;;;15.20;99.90;;;;;;5021479;28;20525;-70
2022/10/24 01:18:27;;;;;;;7.35;2.00;;;15.30;99.90;;;;;;5062796;28;20049;-70
2022/10/24 01:21:06;;;;;;;4.63;1.40;;;15.40;99.90;;;;;;5050288;28;20071;-69
2022/10/24 01:24:05;;;;;;;5.25;2.28;;;15.40;99.90;;;;;;5048448;28;20537;-71
2022/10/24 01:27:00;;;;;;;6.63;1.50;;;15.50;99.90;;;;;;5051242;28;20379;-70
2022/10/24 01:29:51;;;;;;;4.68;1.67;;;15.50;99.90;;;;;;5062223;28;20059;-70
2022/10/24 01:33:08;;;;;;;5.90;1.35;;;15.50;99.90;;;;;;5049484;28;20045;-70
2022/10/24 01:35:49;;;;;;;3.80;1.53;;;15.50;99.90;;;;;;5008447;28;20050;-69
2022/10/24 01:38:50;;;;;;;5.85;1.77;;;15.50;99.90;;;;;;5044712;28;20114;-69
2022/10/24 01:41:21;;;;;;;5.32;1.80;;;15.40;99.90;;;;;;5026945;28;20068;-69
2022/10/24 01:44:07;;;;;;;6.72;2.00;;;15.30;99.90;;;;;;5051246;28;20071;-70
2022/10/24 01:47:11;;;;;;;8.15;1.90;;;15.20;99.90;;;;;;5049827;28;20477;-68
2022/10/24 01:49:39;;;;;;;8.68;2.40;;;15.10;99.90;;;;;;5050347;28;20102;-69
2022/10/24 01:52:10;;;;;;;6.28;1.73;;;15.00;99.90;;;;;;5066081;28;20049;-70
2022/10/24 01:54:37;;;;;;;7.28;2.15;;;15.00;99.90;;;;;;5049229;28;20041;-69
2022/10/24 01:57:04;;;;;;;8.25;1.95;;;14.90;99.90;;;;;;5050474;28;20080;-70
2022/10/24 01:59:29;;;;;;;7.70;1.75;;;14.90;99.90;;;;;;5050699;28;20075;-69
2022/10/24 02:02:05;;;;;;;8.63;2.72;;;14.80;99.90;;;;;;5049768;28;20041;-69
2022/10/24 02:04:34;;;;;;;5.95;1.77;;;14.70;99.90;;;;;;5048986;28;20052;-70
2022/10/24 02:07:03;;;;;;;4.78;2.10;;;14.80;99.90;;;;;;5050656;28;20049;-70
2022/10/24 02:09:30;;;;;;;5.57;1.98;;;14.80;99.90;;;;;;5061486;28;20052;-70
2022/10/24 02:11:57;;;;;;;10.85;2.25;;;14.70;99.90;;;;;;5050509;28;20044;-69
2022/10/24 02:14:29;;;;;;;5.20;1.85;;;14.80;99.90;;;;;;5049895;28;20116;-69
2022/10/24 02:16:55;;;;;;;4.45;1.95;;;14.70;99.90;;;;;;5052677;28;20049;-69
2022/10/24 02:19:21;;;;;;;;;;;14.70;99.90;;;;;;5031884;28;20049;-69
2022/10/24 02:22:02;;;;;;;13.35;2.33;;;14.70;99.90;;;;;;5049475;28;19928;-69
2022/10/24 02:24:30;;;;;;;5.60;1.90;;;14.70;99.90;;;;;;5048278;28;20132;-69
2022/10/24 02:27:22;;;;;;;3.70;1.70;;;14.70;99.90;;;;;;5050486;28;20049;-69
2022/10/24 02:29:56;;;;;;;7.22;2.10;;;14.70;99.90;;;;;;5050424;28;20045;-69
2022/10/24 02:32:31;;;;;;;6.65;1.67;;;14.70;99.90;;;;;;5068759;28;20055;-69
2022/10/24 02:34:59;;;;;;;6.30;1.80;;;14.60;99.90;;;;;;5056763;28;20076;-69
2022/10/24 02:37:27;;;;;;;6.15;1.90;;;14.60;99.90;;;;;;5069101;28;20048;-69
2022/10/24 02:39:54;;;;;;;7.45;1.90;;;14.60;99.90;;;;;;5068752;28;20036;-69
2022/10/24 02:42:22;;;;;;;6.75;2.17;;;14.70;99.90;;;;;;5069685;28;20053;-69
2022/10/24 02:44:48;;;;;;;8.27;2.20;;;14.70;99.90;;;;;;5071904;28;20048;-69
2022/10/24 02:47:14;;;;;;;6.05;2.30;;;14.60;99.90;;;;;;5073710;28;20055;-69
2022/10/24 02:49:42;;;;;;;6.88;2.10;;;14.60;99.90;;;;;;5057894;28;20040;-69
2022/10/24 02:52:08;;;;;;;7.20;1.70;;;14.60;99.90;;;;;;5089215;28;20044;-70
2022/10/24 02:54:33;;;;;;;;;;;14.60;99.90;;;;;;5059848;28;20080;-69
2022/10/24 02:57:01;;;;;;;4.65;1.90;;;14.60;99.90;;;;;;5054179;28;19990;-69
2022/10/24 02:59:27;;;;;;;5.85;2.13;;;14.60;99.90;;;;;;5053456;28;20033;-69
2022/10/24 03:01:53;;;;;;;6.85;2.28;;;14.50;99.90;;;;;;5053890;28;20490;-69
2022/10/24 03:04:18;;;;;;;8.00;2.17;;;14.50;99.90;;;;;;5069841;28;20044;-70
2022/10/24 03:06:44;;;;;;;5.47;1.90;;;14.40;99.90;;;;;;5072957;28;20048;-69
2022/10/24 03:09:10;;;;;;;2.60;1.80;;;14.40;99.90;;;;;;5066233;28;20041;-70
2022/10/24 03:11:35;;;;;;;6.60;2.00;;;14.40;99.90;;;;;;5052845;28;20097;-69
2022/10/24 03:14:01;;;;;;;5.45;1.95;;;14.30;99.90;;;;;;5053982;28;20552;-69
2022/10/24 03:16:27;;;;;;;10.15;2.28;;;14.30;99.90;;;;;;5052787;28;20106;-69
2022/10/24 03:18:54;;;;;;;11.90;2.42;;;14.30;99.90;;;;;;5053234;28;20057;-69
2022/10/24 03:21:20;;;;;;;10.25;2.58;;;14.40;99.90;;;;;;5102011;28;20418;-69
2022/10/24 03:23:45;;;;;;;6.18;2.00;;;14.50;99.90;;;;;;5069288;28;20075;-69
2022/10/24 03:26:11;;;;;;;8.23;2.25;;;14.60;99.90;;;;;;5072908;28;20048;-70
2022/10/24 03:28:38;;;;;;;6.82;2.03;;;14.60;99.90;;;;;;5072440;28;20044;-69
2022/10/24 03:31:04;;;;;;;6.22;1.70;;;14.70;99.90;;;;;;5072538;28;20053;-69
2022/10/24 03:33:30;;;;;;;6.45;1.60;;;14.90;99.90;;;;;;5071422;28;20048;-69
2022/10/24 03:35:56;;;;;;;;;;;15.10;99.90;;;;;;5073592;28;20040;-69
2022/10/24 03:38:22;;;;;;;7.85;2.13;;;15.20;99.90;;;;;;5071606;28;20514;-69
2022/10/24 03:40:48;;;;;;;4.88;1.67;;;15.40;99.90;;;;;;5071261;28;20409;-69
2022/10/24 03:43:14;;;;;;;8.95;2.10;;;15.60;99.90;;;;;;5072666;28;20486;-69
2022/10/24 03:45:40;;;;;;;7.55;1.80;;;15.70;99.90;;;;;;5073374;28;20036;-69
2022/10/24 03:48:06;;;;;;;5.97;1.58;;;15.90;99.90;;;;;;5072772;28;20053;-69
2022/10/24 03:50:32;;;;;;;7.30;1.80;;;15.90;99.90;;;;;;5062324;28;20056;-69
2022/10/24 03:52:58;;;;;;;2.22;1.33;;;16.00;99.90;;;;;;5050895;28;20044;-69
2022/10/24 03:55:23;;;;;;;;;;;16.00;99.90;;;;;;5049925;28;20052;-69
2022/10/24 03:57:49;;;;;;;2.78;1.20;;;16.10;99.90;;;;;;5068251;28;20369;-69
2022/10/24 04:00:17;;;;;;;4.15;1.58;;;16.10;99.90;;;;;;5072447;28;20055;-69
2022/10/24 04:02:43;;;;;;;5.47;1.45;;;16.10;99.90;;;;;;5072426;28;20502;-69
2022/10/24 04:05:09;;;;;;;5.72;1.50;;;16.10;99.90;;;;;;5072689;28;20133;-69
2022/10/24 04:07:34;;;;;;;4.45;2.03;;;16.10;99.90;;;;;;5071430;28;20157;-69
2022/10/24 04:10:00;;;;;;;4.40;1.70;;;16.00;99.90;;;;;;5069771;28;20453;-69
2022/10/24 04:12:26;;;;;;;2.58;1.30;;;15.90;99.90;;;;;;5061023;28;20037;-69
2022/10/24 04:14:52;;;;;;;6.40;1.67;;;15.90;99.90;;;;;;5072369;28;20041;-69
2022/10/24 04:17:17;;;;;;;;;;;15.80;99.90;;;;;;5072531;28;20048;-69
2022/10/24 04:19:43;;;;;;;10.75;2.05;;;15.70;99.90;;;;;;5072172;28;20362;-69
2022/10/24 04:22:09;;;;;;;9.63;2.05;;;15.80;99.90;;;;;;5068758;28;20526;-72
2022/10/24 04:24:36;;;;;;;5.38;1.70;;;15.80;99.90;;;;;;5091777;28;20052;-71
2022/10/24 04:27:02;;;;;;;5.30;1.70;;;15.80;99.90;;;;;;5056593;28;20041;-71
2022/10/24 04:29:28;;;;;;;8.05;1.85;;;15.80;99.90;;;;;;5051338;28;20099;-71
2022/10/24 04:31:54;;;;;;;;;;;15.80;99.90;;;;;;5051485;28;20041;-71
2022/10/24 04:34:19;;;;;;;3.88;1.13;;;15.80;99.90;;;;;;5061051;28;19927;-71
2022/10/24 04:36:45;;;;;;;7.13;1.40;;;15.80;99.90;;;;;;5072151;28;20062;-71
2022/10/24 04:39:10;;;;;;;;;;;15.70;99.90;;;;;;5070515;28;20048;-71
2022/10/24 04:41:36;;;;;;;5.18;1.98;;;15.70;99.90;;;;;;5071518;28;19982;-71
2022/10/24 04:44:02;;;;;;;5.75;2.58;;;15.60;99.90;;;;;;5071224;28;20147;-71
2022/10/24 04:46:28;;;;;;;3.03;1.20;;;15.60;99.90;;;;;;5069842;28;20037;-71
2022/10/24 04:48:53;;;;;;;;;;;15.50;99.90;;;;;;5058955;28;20041;-71
2022/10/24 04:51:19;;;;;;;6.70;1.48;;;15.40;99.90;;;;;;5067543;28;19920;-71
2022/10/24 04:53:45;;;;;;;5.20;1.73;;;15.40;99.90;;;;;;5069959;28;20124;-72
2022/10/24 04:56:10;;;;;;;5.80;2.38;;;15.40;99.90;;;;;;5066055;28;20120;-71
2022/10/24 04:58:36;;;;;;;6.50;1.52;;;15.50;99.90;;;;;;5070884;28;20047;-72
2022/10/24 05:01:02;;;;;;;3.33;1.15;;;15.50;99.90;;;;;;5065826;28;20490;-71
2022/10/24 05:03:28;;;;;;;;;;;15.60;99.90;;;;;;5066862;28;20409;-72
2022/10/24 05:05:53;;;;;;;4.45;1.63;;;15.60;99.90;;;;;;5069916;28;19921;-71
2022/10/24 05:08:19;;;;;;;6.65;1.83;;;15.50;99.90;;;;;;5069195;28;20044;-72
2022/10/24 05:10:45;;;;;;;4.28;1.38;;;15.50;99.90;;;;;;5057138;28;20084;-71
2022/10/24 05:13:11;;;;;;;;;;;15.50;99.90;;;;;;5090883;28;20052;-71
2022/10/24 05:15:36;;;;;;;4.43;1.45;;;15.40;99.90;;;;;;5070719;28;20078;-71
2022/10/24 05:18:03;;;;;;;3.13;1.40;;;15.30;99.90;;;;;;5065589;28;20056;-71
2022/10/24 05:20:29;;;;;;;3.38;1.50;;;15.20;99.90;;;;;;5069505;28;20060;-71
2022/10/24 05:22:55;;;;;;;3.15;1.27;;;15.20;99.90;;;;;;5070566;28;20048;-71
2022/10/24 05:25:21;;;;;;;2.38;1.30;;;15.20;99.90;;;;;;5059254;28;20532;-72
2022/10/24 05:27:46;;;;;;;;;;;15.30;99.90;;;;;;5051822;28;20182;-71
2022/10/24 05:30:13;;;;;;;4.88;1.67;;;15.30;99.90;;;;;;5051415;28;19928;-72
2022/10/24 05:32:38;;;;;;;4.78;1.30;;;15.30;99.90;;;;;;5050481;28;20045;-71
2022/10/24 05:35:05;;;;;;;2.05;1.30;;;15.30;99.90;;;;;;5050853;28;20045;-71
2022/10/24 05:37:30;;;;;;;5.20;1.40;;;15.20;99.90;;;;;;5051263;28;20048;-71
2022/10/24 05:39:56;;;;;;;6.25;1.92;;;15.20;99.90;;;;;;5055590;28;20455;-71
2022/10/24 05:42:22;;;;;;;5.32;1.52;;;15.20;99.90;;;;;;5049656;28;20051;-72
2022/10/24 05:44:47;;;;;;;3.55;1.42;;;15.10;99.90;;;;;;5051390;28;20056;-71
2022/10/24 05:47:13;;;;;;;3.35;1.23;;;15.10;99.90;;;;;;5069207;28;20044;-71
2022/10/24 05:49:39;;;;;;;;;;;15.00;99.90;;;;;;5070095;28;20607;-72
2022/10/24 05:52:04;;;;;;;6.22;1.60;;;15.00;99.90;;;;;;5070787;28;19924;-71
2022/10/24 05:54:30;;;;;;;5.47;1.40;;;15.00;99.90;;;;;;5083460;28;20474;-72
2022/10/24 05:56:56;;;;;;;3.47;1.10;;;15.10;99.90;;;;;;5051383;28;20052;-71
2022/10/24 05:59:22;;;;;;;7.35;1.70;;;15.10;99.90;;;;;;5050560;28;20051;-72
2022/10/24 06:01:47;;;;;;;4.78;1.35;;;15.10;99.90;;;;;;5049343;28;20044;-69
2022/10/24 06:04:13;;;;;;;3.20;1.27;;;15.10;99.90;;;;;;5050396;28;20055;-69
2022/10/24 06:06:41;;;;;;;4.35;1.83;;;15.10;99.90;;;;;;5048946;28;20060;-69
2022/10/24 06:09:06;;;;;;;6.85;1.40;;;15.20;99.90;;;;;;5066775;28;20544;-71
2022/10/24 06:11:32;;;;;;;5.25;2.15;;;15.30;99.90;;;;;;5068004;28;20040;-70
2022/10/24 06:13:58;;;;;;;8.30;1.50;;;15.30;99.90;;;;;;5070624;28;20102;-70
2022/10/24 06:16:26;;;;;;;3.28;1.60;;;15.30;99.90;;;;;;5069989;28;20052;-71
2022/10/24 06:18:52;;;;;;;5.80;1.30;;;15.30;99.90;;;;;;5054457;28;20048;-70
2022/10/24 06:21:18;;;;;;;11.60;2.55;;;15.40;99.90;;;;;;5069479;28;20562;-70
2022/10/24 06:23:44;;;;;;;4.50;1.88;;;15.40;99.90;;;;;;5067821;28;20123;-70
2022/10/24 06:26:10;;;;;;;8.38;1.35;;;15.40;99.90;;;;;;5070310;28;20095;-72
2022/10/24 06:28:40;;;;;;;4.45;1.95;;;15.40;99.90;;;;;;5069207;28;20052;-72
2022/10/24 06:31:07;;;;;;;5.75;1.27;;;15.40;99.90;;;;;;5065904;28;20048;-72
2022/10/24 06:33:34;;;;;;;3.58;1.45;;;15.40;99.90;;;;;;5049008;28;20494;-71
2022/10/24 06:36:03;;;;;;;5.80;1.50;;;15.40;99.90;;;;;;5050101;28;20045;-72
2022/10/24 06:38:29;;;;;;;3.42;1.33;;;15.50;99.90;;;;;;5031055;28;20056;-71
2022/10/24 06:40:54;;;;;;;3.60;2.08;;;15.50;99.90;;;;;;5057291;28;20046;-70
2022/10/24 06:43:20;;;;;;;6.15;1.40;;;15.50;99.90;;;;;;5052698;28;20049;-70
2022/10/24 06:45:46;;;;;;;;;;;15.50;99.90;;;;;;5049228;28;20040;-71
2022/10/24 06:48:12;;;;;;;7.57;1.17;;;15.50;99.90;;;;;;5049943;28;19927;-71
2022/10/24 06:50:41;;;;;;;7.15;1.92;;;15.50;99.90;;;;;;5048896;28;20509;-71
2022/10/24 06:53:08;;;;;;;3.58;1.00;;;15.50;99.90;;;;;;5049232;28;20080;-71
2022/10/24 06:55:37;;;;;;;6.63;1.42;;;15.60;99.90;;;;;;5048349;28;20056;-71
2022/10/24 06:58:05;;;;;;;3.53;0.98;;;15.60;99.90;;;;;;5049062;28;20487;-71
2022/10/24 07:00:36;;;;;;;3.05;1.30;;;15.60;99.90;;;;;;5054620;28;20447;-71
2022/10/24 07:03:01;;;;;;;2.65;0.95;;;15.50;99.90;;;;;;5053827;28;20406;-70
2022/10/24 07:05:27;;;;;;;3.75;1.40;;;15.50;99.90;;;;;;5048528;28;20053;-72
2022/10/24 07:07:53;;;;;;;;;;;15.50;99.90;;;;;;5049129;28;20440;-71
2022/10/24 07:10:18;;;;;;;10.65;2.25;;;15.60;99.90;;;;;;5048808;28;19928;-71
2022/10/24 07:12:44;;;;;;;;;;;15.60;99.90;;;;;;5049818;28;20218;-71
2022/10/24 07:15:10;;;;;;;8.90;1.60;;;15.60;99.90;;;;;;5055370;28;19920;-71
2022/10/24 07:17:43;;;;;;;4.32;1.20;;;15.60;99.90;;;;;;5069210;28;20056;-70
2022/10/24 07:20:11;;;;;;;4.13;1.05;;;15.60;99.90;;;;;;5065815;28;20124;-74
2022/10/24 07:22:37;;;;;;;5.30;1.30;;;15.60;99.90;;;;;;5067420;28;20547;-71
2022/10/24 07:25:03;;;;;;;;;;;15.60;99.90;;;;;;5066812;28;20098;-72
2022/10/24 07:27:29;;;;;;;2.33;0.97;;;15.60;99.90;;;;;;5066206;28;20400;-75
2022/10/24 07:29:55;;;;;;;6.10;1.17;;;15.60;99.90;;;;;;5066817;28;20040;-72
2022/10/24 07:32:21;;;;;;;6.60;1.73;;;15.60;99.90;;;;;;5071104;28;20095;-74
2022/10/24 07:34:47;;;;;;;4.75;1.33;;;15.70;99.90;;;;;;5071157;28;20378;-72
2022/10/24 07:37:13;;;;;;;;;;;15.70;99.90;;;;;;5071895;28;20036;-73
2022/10/24 07:39:39;;;;;;;3.35;1.20;;;15.80;99.90;;;;;;5068958;28;19924;-73
2022/10/24 07:42:05;;;;;;;3.78;1.13;;;15.90;99.90;;;;;;5099878;28;20049;-72
2022/10/24 07:44:31;;;;;;;6.18;2.38;;;16.00;99.90;;;;;;5070070;28;20044;-75
2022/10/24 07:46:56;;;;;;;6.18;1.27;;;16.10;99.90;;;;;;5070612;28;20040;-73
2022/10/24 07:49:22;;;;;;;;;;;16.10;99.90;;;;;;5050000;28;20425;-72
2022/10/24 07:51:48;;;;;;;2.53;1.20;;;16.20;99.90;;;;;;5070479;28;19920;-76
2022/10/24 07:54:13;;;;;;;2.03;1.20;;;16.20;99.90;;;;;;5067988;28;20055;-76
2022/10/24 07:56:39;;;;;;;;;;;16.30;99.90;;;;;;5070567;28;20546;-70
2022/10/24 07:59:05;;;;;;;4.43;1.27;;;16.20;99.90;;;;;;5071009;28;19924;-73
2022/10/24 08:01:30;;;;;;;2.85;1.23;;;16.20;99.90;;;;;;5069245;28;20127;-76
2022/10/24 08:03:56;;;;;;;4.85;1.20;;;16.20;99.90;;;;;;5070289;28;20041;-75
2022/10/24 08:06:28;;;;;;;7.53;1.75;;;16.20;99.90;;;;;;5063356;28;20045;-72
2022/10/24 08:08:54;;;;;;;4.55;1.23;;;16.20;99.90;;;;;;5049686;28;20087;-73
2022/10/24 08:11:21;;;;;;;;;;;16.20;99.90;;;;;;5052890;28;20127;-72
2022/10/24 08:13:48;;;;;;;5.45;1.13;;;16.30;99.90;;;;;;5064445;28;19932;-72
2022/10/24 08:16:15;;;;;;;6.72;1.52;;;16.30;99.90;;;;;;5058275;28;20055;-73
2022/10/24 08:18:42;;;;;;;6.25;1.13;;;16.30;99.90;;;;;;5063811;28;20053;-71
2022/10/24 08:21:11;;;;;;;4.90;1.20;;;16.20;99.90;;;;;;5097294;28;20177;-73
2022/10/24 08:23:41;;;;;;;11.88;1.50;;;16.20;99.90;;;;;;5061974;28;20049;-77
2022/10/24 08:26:08;;;;;;;5.75;1.63;;;16.20;99.90;;;;;;5052116;28;20036;-72
2022/10/24 08:28:34;;;;;;;8.10;1.20;;;16.30;99.90;;;;;;5051946;28;20055;-77
2022/10/24 08:31:02;;;;;;;7.70;1.42;;;16.30;99.90;;;;;;5052114;28;20041;-71
2022/10/24 08:33:29;;;;;;;4.45;1.15;;;16.40;99.90;;;;;;5056440;28;20055;-76
2022/10/24 08:35:59;;;;;;;5.03;1.40;;;16.40;99.90;;;;;;5058512;28;20163;-72
2022/10/24 08:38:26;;;;;;;2.03;1.00;;;16.40;99.90;;;;;;5051018;28;20048;-71
2022/10/24 08:40:51;;;;;;;3.40;1.00;;;16.50;99.90;;;;;;5049978;28;20059;-71
2022/10/24 08:43:18;;;;;;;6.85;1.52;;;16.60;99.90;;;;;;5051342;28;20552;-71
2022/10/24 08:45:55;;;;;;;8.55;1.73;;;16.70;99.90;;;;;;5051029;28;20421;-72
2022/10/24 08:48:53;;;;;;;8.68;1.50;;;16.80;99.90;;;;;;5051813;28;20048;-72
2022/10/24 08:51:27;;;;;;;;;;;16.90;99.90;;;;;;5044723;28;20631;-70
2022/10/24 08:53:55;;;;;;;5.43;1.13;;;16.90;99.90;;;;;;5060120;28;19920;-71
2022/10/24 08:56:21;;;;;;;6.88;1.10;;;16.80;99.90;;;;;;5051137;28;20371;-70
2022/10/24 08:58:50;;;;;;;5.72;1.02;;;16.70;99.90;;;;;;5050961;28;20524;-70
2022/10/24 09:01:55;;;;;;;9.73;1.42;;;16.80;99.90;;;;;;5051715;28;20059;-69
2022/10/24 09:04:25;;;;;;;11.05;2.45;;;16.90;99.90;;;;;;5051662;28;20056;-71
2022/10/24 09:06:53;;;;;;;2.67;1.30;;;17.00;99.90;;;;;;5069051;28;20048;-72
2022/10/24 09:09:25;;;;;;;9.15;1.92;;;17.00;99.90;;;;;;5065637;28;20110;-71
2022/10/24 09:12:00;;;;;;;11.43;1.40;;;17.10;99.90;;;;;;5053527;28;20041;-73
2022/10/24 09:14:32;;;;;;;9.48;1.25;;;17.10;99.90;;;;;;5063529;28;20494;-81
2022/10/24 09:17:21;;;;;;;4.22;0.93;;;17.10;99.90;;;;;;5102220;28;20053;-74
2022/10/24 09:20:16;;;;;;;5.05;1.30;;;17.10;99.90;;;;;;5052429;28;20052;-71
2022/10/24 09:22:42;;;;;;;7.38;1.88;;;17.00;99.90;;;;;;5065012;28;20078;-73
2022/10/24 09:25:13;;;;;;;19.33;1.73;;;17.00;99.90;;;;;;5067657;28;20028;-71
2022/10/24 09:27:41;;;;;;;4.90;1.10;;;17.10;99.90;;;;;;5061215;28;20040;-74
2022/10/24 09:30:18;;;;;;;6.35;1.38;;;17.10;99.90;;;;;;5056808;28;20090;-73
2022/10/24 09:32:45;;;;;;;6.65;1.33;;;17.20;99.90;;;;;;5062089;28;20048;-71
2022/10/24 09:35:28;;;;;;;5.18;1.30;;;17.20;99.90;;;;;;5068751;28;20139;-70
2022/10/24 09:37:57;;;;;;;3.78;0.98;;;17.20;99.90;;;;;;5063714;28;20052;-71
2022/10/24 09:40:31;;;;;;;3.28;1.10;;;17.20;99.90;;;;;;5067489;28;20076;-71
2022/10/24 09:42:59;;;;;;;3.72;1.30;;;17.20;99.90;;;;;;5067397;28;20047;-71
2022/10/24 09:45:30;;;;;;;7.32;1.63;;;17.20;99.90;;;;;;5101033;28;20060;-72
2022/10/24 09:48:03;;;;;;;5.32;1.10;;;17.30;99.90;;;;;;5062169;28;20044;-73
2022/10/24 09:50:32;;;;;;;5.68;1.85;;;17.30;99.90;;;;;;5068764;28;20133;-71
2022/10/24 09:52:59;;;;;;;2.20;1.00;;;17.30;99.90;;;;;;5057579;28;20041;-71
2022/10/24 09:55:27;;;;;;;6.90;1.83;;;17.20;99.90;;;;;;5067784;28;20042;-72
2022/10/24 09:57:58;;;;;;;4.40;1.23;;;17.20;99.90;;;;;;5068114;28;20113;-70
2022/10/24 10:00:28;;;;;;;3.17;1.23;;;17.20;99.90;;;;;;5068877;28;20379;-71
2022/10/24 10:03:20;;;;;;;4.50;0.82;;;17.20;99.90;;;;;;5067189;28;20124;-73
2022/10/24 10:05:48;;;;;;;5.68;1.48;;;17.10;99.90;;;;;;5067114;28;20056;-75
2022/10/24 10:08:32;;;;;;;4.65;1.00;;;17.00;99.90;;;;;;5067837;28;20056;-72
2022/10/24 10:11:08;;;;;;;3.83;1.08;;;17.00;99.90;;;;;;5062984;28;20051;-71
2022/10/24 10:13:48;;;;;;;17.13;1.73;;;16.90;99.90;;;;;;5068909;28;20076;-73
2022/10/24 10:16:24;;;;;;;6.20;1.10;;;16.90;99.90;;;;;;5063944;28;20091;-71
2022/10/24 10:19:00;;;;;;;4.47;1.10;;;16.90;99.90;;;;;;5067729;28;20052;-71
2022/10/24 10:21:26;;;;;;;5.50;1.40;;;16.80;99.90;;;;;;5068612;28;20055;-74
2022/10/24 10:23:53;;;;;;;;;;;16.70;99.90;;;;;;5059875;28;20040;-72
2022/10/24 10:26:27;;;;;;;2.60;0.88;;;16.60;99.90;;;;;;5065669;28;19968;-73
2022/10/24 10:29:00;;;;;;;1.77;0.98;;;16.60;99.90;;;;;;5067086;28;20040;-75
2022/10/24 10:31:53;;;;;;;6.72;2.03;;;16.50;99.90;;;;;;5062810;28;20087;-73
2022/10/24 10:34:18;;;;;;;4.60;1.02;;;16.30;99.90;;;;;;5067755;28;20093;-73
2022/10/24 10:37:10;;;;;;;5.72;1.38;;;16.10;99.90;;;;;;5058249;28;20620;-76
2022/10/24 10:39:47;;;;;;;6.55;1.98;;;15.90;99.90;;;;;;5063047;28;20067;-74
2022/10/24 10:42:42;;;;;;;5.47;1.60;;;15.80;99.90;;;;;;5065313;28;20052;-72
2022/10/24 10:45:18;;;;;;;3.72;1.45;;;15.70;99.90;;;;;;5065006;28;20048;-73
2022/10/24 10:48:25;;;;;;;9.00;1.65;;;15.50;99.90;;;;;;5064865;28;20048;-77
2022/10/24 10:51:12;;;;;;;6.38;1.10;;;15.40;99.90;;;;;;5041520;28;20128;-73
2022/10/24 10:54:00;;;;;;;8.73;1.67;;;15.60;99.90;;;;;;5068486;28;20478;-76
2022/10/24 10:56:28;;;;;;;7.00;1.35;;;15.60;99.90;;;;;;5069968;28;20111;-74
2022/10/24 10:59:21;;;;;;;4.22;0.98;;;15.90;99.90;;;;;;5069422;28;20044;-77
2022/10/24 11:02:16;;;;;;;6.07;1.20;;;16.30;99.90;;;;;;5102102;28;20468;-79
2022/10/24 11:04:44;;;;;;;8.35;1.52;;;16.70;99.90;;;;;;5056505;28;20132;-77
2022/10/24 11:07:13;;;;;;;6.15;1.58;;;17.20;99.90;;;;;;5052189;28;20493;-74
2022/10/24 11:09:49;;;;;;;3.67;1.08;;;17.60;99.90;;;;;;5057183;28;20054;-74
2022/10/24 11:12:36;;;;;;;5.03;1.20;;;18.00;99.90;;;;;;5064492;28;20075;-75
2022/10/24 11:15:26;;;;;;;4.30;1.02;;;18.30;99.90;;;;;;5065747;28;20055;-74
2022/10/24 11:18:22;;;;;;;5.30;1.10;;;18.40;99.90;;;;;;5057623;28;20067;-75
2022/10/24 11:21:07;;;;;;;5.07;1.00;;;18.30;99.90;;;;;;5062096;28;20087;-79
2022/10/24 11:23:48;;;;;;;2.63;1.00;;;18.30;99.90;;;;;;5059003;28;20053;-79
2022/10/24 11:26:20;;;;;;;4.97;0.82;;;18.60;99.90;;;;;;5053474;28;20103;-75
2022/10/24 11:29:02;;;;;;;4.05;1.10;;;18.90;99.90;;;;;;5057705;28;20084;-79
2022/10/24 11:31:44;;;;;;;2.33;1.08;;;19.10;99.90;;;;;;5059837;28;20045;-76
2022/10/24 11:34:32;;;;;;;3.20;1.42;;;19.20;99.90;;;;;;5059172;28;20047;-76
2022/10/24 11:37:10;;;;;;;6.15;1.10;;;19.40;99.90;;;;;;5052786;28;20047;-74
2022/10/24 11:39:57;;;;;;;6.03;1.20;;;19.50;99.90;;;;;;5051518;28;20390;-75
2022/10/24 11:43:15;;;;;;;4.53;1.08;;;19.70;99.90;;;;;;5062541;28;20051;-74
2022/10/24 11:45:40;;;;;;;2.00;1.00;;;19.80;99.90;;;;;;5065008;28;20048;-74
2022/10/24 11:48:18;;;;;;;3.05;1.05;;;20.00;99.90;;;;;;5071889;28;20524;-75
2022/10/24 11:51:15;;;;;;;4.78;0.95;;;19.80;99.90;;;;;;5068323;28;20044;-73
2022/10/24 11:53:46;;;;;;;;;;;19.50;99.90;;;;;;5068197;28;20397;-74
2022/10/24 11:56:22;;;;;;;6.00;1.13;;;19.30;99.90;;;;;;5058290;28;19921;-72
2022/10/24 11:59:03;;;;;;;2.45;0.80;;;19.10;99.90;;;;;;5051680;28;20037;-78
2022/10/24 12:01:46;;;;;;;7.72;1.20;;;18.80;99.90;;;;;;5054462;28;20076;-73
2022/10/24 12:04:26;;;;;;;1.85;0.55;;;18.60;99.90;;;;;;5053657;28;20057;-73
2022/10/24 12:07:13;;;;;;;5.45;1.00;;;18.50;99.90;;;;;;5057161;28;20607;-78
2022/10/24 12:10:09;;;;;;;3.97;1.52;;;18.40;99.90;;;;;;5055908;28;20056;-76
2022/10/24 12:12:55;;;;;;;2.13;1.00;;;18.30;99.90;;;;;;5063999;28;20049;-74
2022/10/24 12:15:41;;;;;;;4.00;1.08;;;18.20;99.90;;;;;;5051699;28;20053;-73
2022/10/24 12:18:24;;;;;;;5.72;0.90;;;18.10;99.90;;;;;;5050329;28;20063;-73
2022/10/24 12:20:53;;;;;;;4.70;1.08;;;18.00;99.90;;;;;;5065730;28;20049;-77
2022/10/24 12:23:23;;;;;;;4.38;1.00;;;17.90;99.90;;;;;;5050314;28;20110;-74
2022/10/24 12:26:07;;;;;;;3.25;1.05;;;17.80;99.90;;;;;;5051284;28;20120;-77
2022/10/24 12:28:33;;;;;;;2.15;0.90;;;17.60;99.90;;;;;;5052326;28;20064;-73
2022/10/24 12:31:14;;;;;;;3.78;0.90;;;17.60;99.90;;;;;;5051561;28;20072;-73
2022/10/24 12:33:41;;;;;;;3.83;1.10;;;17.50;99.90;;;;;;5062576;28;20044;-75
2022/10/24 12:36:07;;;;;;;2.42;0.82;;;17.40;99.90;;;;;;5071028;28;20045;-73
2022/10/24 12:38:33;;;;;;;1.52;0.90;;;17.40;99.90;;;;;;5069533;28;20138;-75
2022/10/24 12:41:05;;;;;;;;;;;17.40;99.90;;;;;;5051009;28;20127;-73
2022/10/24 12:43:35;;;;;;;2.22;0.80;;;17.40;99.90;;;;;;5051346;28;19973;-72
2022/10/24 12:46:16;;;;;;;3.70;1.00;;;17.40;99.90;;;;;;5051675;28;20168;-73
2022/10/24 12:48:56;;;;;;;5.03;1.05;;;17.30;99.90;;;;;;5051777;28;20052;-73
2022/10/24 12:51:32;;;;;;;4.82;1.10;;;17.30;99.90;;;;;;5053242;28;20132;-73
2022/10/24 12:54:01;;;;;;;2.63;0.90;;;17.30;99.90;;;;;;5068924;28;20118;-73
2022/10/24 12:56:28;;;;;;;5.60;0.82;;;17.40;99.90;;;;;;5085518;28;20044;-72
2022/10/24 12:59:17;;;;;;;5.28;1.45;;;17.50;99.90;;;;;;5065390;28;20097;-77
2022/10/24 13:01:44;;;;;;;3.28;0.80;;;18.00;99.90;;;;;;5067255;28;20345;-76
2022/10/24 13:04:41;;;;;;;5.10;0.98;;;18.10;99.90;;;;;;5058279;28;20060;-73
2022/10/24 13:07:26;;;;;;;5.60;1.23;;;18.10;99.90;;;;;;5050077;28;20048;-75
2022/10/24 13:10:18;;;;;;;2.28;1.48;;;18.30;99.90;;;;;;5053379;28;20062;-76
2022/10/24 13:12:47;;;;;;;3.50;1.00;;;18.30;99.90;;;;;;5051695;28;20528;-73
2022/10/24 13:15:33;;;;;;;1.33;1.00;;;18.20;99.90;;;;;;5052947;28;20041;-72
2022/10/24 13:18:04;;;;;;;3.10;1.13;;;18.10;99.90;;;;;;5055557;28;20132;-72